sensor_id;sensor_type;location;lat;lon;timestamp;temperature;humidity
4826;DHT22;2427;50.934;6.776;2022-12-18T00:02:14;-5.90;99.90
4826;DHT22;2427;50.934;6.776;2022-12-18T00:04:39;-5.80;99.90
4826;DHT22;2427;50.934;6.776;2022-12-18T00:07:05;-5.80;99.90
4826;DHT22;2427;50.934;6.776;2022-12-18T00:09:31;-5.80;99.90
4826;DHT22;2427;50.934;6.776;2022-12-18T00:11:56;-5.80;99.90
4826;DHT22;2427;50.934;6.776;2022-12-18T00:14:22;-5.80;99.90
4826;DHT22;2427;50.934;6.776;2022-12-18T00:16:47;-5.80;99.90
4826;DHT22;2427;50.934;6.776;2022-12-18T00:19:14;-5.80;99.90
4826;DHT22;2427;50.934;6.776;2022-12-18T00:21:40;-5.80;99.90
4826;DHT22;2427;50.934;6.776;2022-12-18T00:24:06;-5.80;1.00
4826;DHT22;2427;50.934;6.776;2022-12-18T00:26:33;-5.90;1.00
4826;DHT22;2427;50.934;6.776;2022-12-18T00:29:00;-5.90;1.00
4826;DHT22;2427;50.934;6.776;2022-12-18T00:31:26;-5.90;1.00
4826;DHT22;2427;50.934;6.776;2022-12-18T00:33:54;-5.90;1.00
4826;DHT22;2427;50.934;6.776;2022-12-18T00:36:23;-5.90;1.00
4826;DHT22;2427;50.934;6.776;2022-12-18T00:38:49;-5.90;1.00
4826;DHT22;2427;50.934;6.776;2022-12-18T00:41:16;-5.90;1.00
4826;DHT22;2427;50.934;6.776;2022-12-18T00:44:02;-5.90;1.00
4826;DHT22;2427;50.934;6.776;2022-12-18T00:46:28;-5.90;1.00
4826;DHT22;2427;50.934;6.776;2022-12-18T00:48:53;-5.90;1.00
4826;DHT22;2427;50.934;6.776;2022-12-18T00:51:19;-6.00;1.00
4826;DHT22;2427;50.934;6.776;2022-12-18T00:53:44;-6.00;1.00
4826;DHT22;2427;50.934;6.776;2022-12-18T00:56:10;-6.00;1.00
4826;DHT22;2427;50.934;6.776;2022-12-18T00:58:35;-6.00;1.00
4826;DHT22;2427;50.934;6.776;2022-12-18T01:01:03;-6.00;1.00
4826;DHT22;2427;50.934;6.776;2022-12-18T01:03:28;-6.00;1.00
4826;DHT22;2427;50.934;6.776;2022-12-18T01:05:54;-6.00;1.00
4826;DHT22;2427;50.934;6.776;2022-12-18T01:08:19;-6.00;1.00
4826;DHT22;2427;50.934;6.776;2022-12-18T01:10:45;-6.00;1.00
4826;DHT22;2427;50.934;6.776;2022-12-18T01:13:11;-6.00;1.00
4826;DHT22;2427;50.934;6.776;2022-12-18T01:15:36;-6.00;1.00
4826;DHT22;2427;50.934;6.776;2022-12-18T01:18:02;-6.00;1.00
4826;DHT22;2427;50.934;6.776;2022-12-18T01:20:27;-6.10;1.00
4826;DHT22;2427;50.934;6.776;2022-12-18T01:22:53;-6.10;1.00
4826;DHT22;2427;50.934;6.776;2022-12-18T01:25:18;-6.00;1.00
4826;DHT22;2427;50.934;6.776;2022-12-18T01:27:44;-6.10;1.00
4826;DHT22;2427;50.934;6.776;2022-12-18T01:30:10;-6.10;1.00
4826;DHT22;2427;50.934;6.776;2022-12-18T01:32:35;-6.10;1.00
4826;DHT22;2427;50.934;6.776;2022-12-18T01:35:01;-6.10;1.00
4826;DHT22;2427;50.934;6.776;2022-12-18T01:37:27;-6.10;1.00
4826;DHT22;2427;50.934;6.776;2022-12-18T01:39:52;-6.10;1.00
4826;DHT22;2427;50.934;6.776;2022-12-18T01:42:19;-6.20;1.00
4826;DHT22;2427;50.934;6.776;2022-12-18T01:45:04;-6.20;1.00
4826;DHT22;2427;50.934;6.776;2022-12-18T01:50:28;-6.30;1.00
4826;DHT22;2427;50.934;6.776;2022-12-18T01:53:11;-6.30;1.00
4826;DHT22;2427;50.934;6.776;2022-12-18T01:55:49;-6.30;1.00
4826;DHT22;2427;50.934;6.776;2022-12-18T01:58:18;-6.30;1.00
4826;DHT22;2427;50.934;6.776;2022-12-18T02:11:31;-6.40;1.00
4826;DHT22;2427;50.934;6.776;2022-12-18T02:14:08;-6.30;1.00
4826;DHT22;2427;50.934;6.776;2022-12-18T02:27:42;-6.30;1.00
4826;DHT22;2427;50.934;6.776;2022-12-18T02:30:10;-6.30;1.00
4826;DHT22;2427;50.934;6.776;2022-12-18T02:32:41;-6.30;1.00
4826;DHT22;2427;50.934;6.776;2022-12-18T02:35:15;-6.40;1.00
4826;DHT22;2427;50.934;6.776;2022-12-18T02:37:43;-6.40;1.00
4826;DHT22;2427;50.934;6.776;2022-12-18T02:40:11;-6.40;1.00
4826;DHT22;2427;50.934;6.776;2022-12-18T02:42:37;-6.40;1.00
4826;DHT22;2427;50.934;6.776;2022-12-18T02:45:03;-6.50;1.00
4826;DHT22;2427;50.934;6.776;2022-12-18T02:47:32;-6.50;1.00
4826;DHT22;2427;50.934;6.776;2022-12-18T02:50:22;-6.50;1.00
4826;DHT22;2427;50.934;6.776;2022-12-18T02:56:03;-6.60;1.00
4826;DHT22;2427;50.934;6.776;2022-12-18T02:58:42;-6.50;1.00
4826;DHT22;2427;50.934;6.776;2022-12-18T03:01:26;-6.50;1.00
4826;DHT22;2427;50.934;6.776;2022-12-18T03:04:07;-6.60;1.00
4826;DHT22;2427;50.934;6.776;2022-12-18T03:06:40;-6.60;1.00
4826;DHT22;2427;50.934;6.776;2022-12-18T03:09:10;-6.60;1.00
4826;DHT22;2427;50.934;6.776;2022-12-18T03:11:40;-6.70;1.00
4826;DHT22;2427;50.934;6.776;2022-12-18T03:14:27;-6.60;1.00
4826;DHT22;2427;50.934;6.776;2022-12-18T03:16:59;-6.70;1.00
4826;DHT22;2427;50.934;6.776;2022-12-18T03:19:28;-6.70;1.00
4826;DHT22;2427;50.934;6.776;2022-12-18T03:21:56;-6.70;5.40
4826;DHT22;2427;50.934;6.776;2022-12-18T03:24:24;-6.70;15.90
4826;DHT22;2427;50.934;6.776;2022-12-18T03:26:54;-6.70;64.90
4826;DHT22;2427;50.934;6.776;2022-12-18T03:29:24;-6.70;99.90
4826;DHT22;2427;50.934;6.776;2022-12-18T03:31:57;-6.70;99.90
4826;DHT22;2427;50.934;6.776;2022-12-18T03:34:29;-6.60;99.90
4826;DHT22;2427;50.934;6.776;2022-12-18T03:36:56;-6.60;99.90
4826;DHT22;2427;50.934;6.776;2022-12-18T03:39:21;-6.50;99.90
4826;DHT22;2427;50.934;6.776;2022-12-18T03:47:34;-6.40;99.90
4826;DHT22;2427;50.934;6.776;2022-12-18T03:50:25;-6.50;24.00
4826;DHT22;2427;50.934;6.776;2022-12-18T03:53:14;-6.50;1.00
4826;DHT22;2427;50.934;6.776;2022-12-18T03:55:43;-6.50;1.00
4826;DHT22;2427;50.934;6.776;2022-12-18T03:58:11;-6.40;1.00
4826;DHT22;2427;50.934;6.776;2022-12-18T04:00:39;-6.50;1.00
4826;DHT22;2427;50.934;6.776;2022-12-18T04:03:06;-6.50;1.00
4826;DHT22;2427;50.934;6.776;2022-12-18T04:05:34;-6.50;1.00
4826;DHT22;2427;50.934;6.776;2022-12-18T04:08:01;-6.50;1.00
4826;DHT22;2427;50.934;6.776;2022-12-18T04:10:27;-6.50;1.00
4826;DHT22;2427;50.934;6.776;2022-12-18T04:12:56;-6.60;1.00
4826;DHT22;2427;50.934;6.776;2022-12-18T04:15:22;-6.60;1.00
4826;DHT22;2427;50.934;6.776;2022-12-18T04:17:49;-6.60;1.00
4826;DHT22;2427;50.934;6.776;2022-12-18T04:20:16;-6.60;16.80
4826;DHT22;2427;50.934;6.776;2022-12-18T04:22:42;-6.70;7.50
4826;DHT22;2427;50.934;6.776;2022-12-18T04:25:08;-6.70;43.60
4826;DHT22;2427;50.934;6.776;2022-12-18T04:27:33;-6.70;54.00
4826;DHT22;2427;50.934;6.776;2022-12-18T04:29:59;-6.70;99.30
4826;DHT22;2427;50.934;6.776;2022-12-18T04:32:25;-6.80;99.70
4826;DHT22;2427;50.934;6.776;2022-12-18T04:34:50;-6.80;95.10
4826;DHT22;2427;50.934;6.776;2022-12-18T04:37:16;-6.90;89.60
4826;DHT22;2427;50.934;6.776;2022-12-18T04:39:41;-6.90;99.90
4826;DHT22;2427;50.934;6.776;2022-12-18T04:42:07;-6.90;99.90
4826;DHT22;2427;50.934;6.776;2022-12-18T04:44:32;-6.90;99.90
4826;DHT22;2427;50.934;6.776;2022-12-18T04:46:58;-6.90;99.90
4826;DHT22;2427;50.934;6.776;2022-12-18T04:49:23;-6.90;99.90
4826;DHT22;2427;50.934;6.776;2022-12-18T04:51:49;-6.90;99.90
4826;DHT22;2427;50.934;6.776;2022-12-18T04:54:15;-6.90;99.90
4826;DHT22;2427;50.934;6.776;2022-12-18T04:56:40;-6.90;99.90
4826;DHT22;2427;50.934;6.776;2022-12-18T04:59:06;-6.80;99.90
4826;DHT22;2427;50.934;6.776;2022-12-18T05:01:34;-6.70;1.00
4826;DHT22;2427;50.934;6.776;2022-12-18T05:04:01;-6.70;99.90
4826;DHT22;2427;50.934;6.776;2022-12-18T05:06:26;-6.60;99.90
4826;DHT22;2427;50.934;6.776;2022-12-18T05:08:52;-6.60;1.00
4826;DHT22;2427;50.934;6.776;2022-12-18T05:11:17;-6.50;99.90
4826;DHT22;2427;50.934;6.776;2022-12-18T05:13:44;-6.50;99.90
4826;DHT22;2427;50.934;6.776;2022-12-18T05:16:09;-6.50;99.90
4826;DHT22;2427;50.934;6.776;2022-12-18T05:18:35;-6.60;99.90
4826;DHT22;2427;50.934;6.776;2022-12-18T05:21:01;-6.60;99.90
4826;DHT22;2427;50.934;6.776;2022-12-18T05:23:27;-6.50;99.90
4826;DHT22;2427;50.934;6.776;2022-12-18T05:25:55;-6.50;99.90
4826;DHT22;2427;50.934;6.776;2022-12-18T05:28:22;-6.50;99.90
4826;DHT22;2427;50.934;6.776;2022-12-18T05:30:49;-6.50;99.90
4826;DHT22;2427;50.934;6.776;2022-12-18T05:33:16;-6.50;99.90
4826;DHT22;2427;50.934;6.776;2022-12-18T05:35:41;-6.50;17.30
4826;DHT22;2427;50.934;6.776;2022-12-18T05:38:07;-6.50;1.00
4826;DHT22;2427;50.934;6.776;2022-12-18T05:40:33;-6.50;1.00
4826;DHT22;2427;50.934;6.776;2022-12-18T05:42:58;-6.50;1.00
4826;DHT22;2427;50.934;6.776;2022-12-18T05:45:24;-6.50;1.00
4826;DHT22;2427;50.934;6.776;2022-12-18T05:47:49;-6.50;1.00
4826;DHT22;2427;50.934;6.776;2022-12-18T05:50:15;-6.50;1.00
4826;DHT22;2427;50.934;6.776;2022-12-18T05:52:40;-6.50;1.00
4826;DHT22;2427;50.934;6.776;2022-12-18T05:55:06;-6.50;1.00
4826;DHT22;2427;50.934;6.776;2022-12-18T05:57:32;-6.50;1.00
4826;DHT22;2427;50.934;6.776;2022-12-18T05:59:57;-6.50;1.00
4826;DHT22;2427;50.934;6.776;2022-12-18T06:02:23;-6.50;1.00
4826;DHT22;2427;50.934;6.776;2022-12-18T06:04:48;-6.50;1.00
4826;DHT22;2427;50.934;6.776;2022-12-18T06:07:14;-6.50;1.00
4826;DHT22;2427;50.934;6.776;2022-12-18T06:09:40;-6.40;1.00
4826;DHT22;2427;50.934;6.776;2022-12-18T06:12:05;-6.50;1.00
4826;DHT22;2427;50.934;6.776;2022-12-18T06:14:31;-6.40;1.00
4826;DHT22;2427;50.934;6.776;2022-12-18T06:16:56;-6.40;1.00
4826;DHT22;2427;50.934;6.776;2022-12-18T06:19:22;-6.40;1.00
4826;DHT22;2427;50.934;6.776;2022-12-18T06:21:48;-6.40;1.00
4826;DHT22;2427;50.934;6.776;2022-12-18T06:24:14;-6.40;1.00
4826;DHT22;2427;50.934;6.776;2022-12-18T06:26:40;-6.40;1.00
4826;DHT22;2427;50.934;6.776;2022-12-18T06:29:05;-6.40;1.00
4826;DHT22;2427;50.934;6.776;2022-12-18T06:31:31;-6.40;1.00
4826;DHT22;2427;50.934;6.776;2022-12-18T06:33:57;-6.40;1.00
4826;DHT22;2427;50.934;6.776;2022-12-18T06:36:22;-6.50;1.00
4826;DHT22;2427;50.934;6.776;2022-12-18T06:38:48;-6.50;1.00
4826;DHT22;2427;50.934;6.776;2022-12-18T06:41:17;-6.60;1.00
4826;DHT22;2427;50.934;6.776;2022-12-18T06:43:43;-6.60;1.00
4826;DHT22;2427;50.934;6.776;2022-12-18T06:46:10;-6.60;1.00
4826;DHT22;2427;50.934;6.776;2022-12-18T06:48:35;-6.60;1.00
4826;DHT22;2427;50.934;6.776;2022-12-18T06:51:01;-6.60;1.00
4826;DHT22;2427;50.934;6.776;2022-12-18T06:53:27;-6.60;1.00
4826;DHT22;2427;50.934;6.776;2022-12-18T06:56:00;-6.60;1.00
4826;DHT22;2427;50.934;6.776;2022-12-18T06:58:25;-6.60;1.00
4826;DHT22;2427;50.934;6.776;2022-12-18T07:00:52;-6.70;1.00
4826;DHT22;2427;50.934;6.776;2022-12-18T07:03:17;-6.70;1.00
4826;DHT22;2427;50.934;6.776;2022-12-18T07:05:43;-6.70;1.00
4826;DHT22;2427;50.934;6.776;2022-12-18T07:08:08;-6.70;5.20
4826;DHT22;2427;50.934;6.776;2022-12-18T07:10:40;-6.70;6.50
4826;DHT22;2427;50.934;6.776;2022-12-18T07:13:05;-6.60;59.40
4826;DHT22;2427;50.934;6.776;2022-12-18T07:15:31;-6.70;77.20
4826;DHT22;2427;50.934;6.776;2022-12-18T07:17:56;-6.60;99.90
4826;DHT22;2427;50.934;6.776;2022-12-18T07:20:22;-6.60;99.90
4826;DHT22;2427;50.934;6.776;2022-12-18T07:22:47;-6.60;99.90
4826;DHT22;2427;50.934;6.776;2022-12-18T07:25:13;-6.60;99.90
4826;DHT22;2427;50.934;6.776;2022-12-18T07:27:39;-6.60;99.90
4826;DHT22;2427;50.934;6.776;2022-12-18T07:30:05;-6.50;99.90
4826;DHT22;2427;50.934;6.776;2022-12-18T07:32:30;-6.50;99.90
4826;DHT22;2427;50.934;6.776;2022-12-18T07:34:56;-6.40;99.90
4826;DHT22;2427;50.934;6.776;2022-12-18T07:37:21;-6.40;99.90
4826;DHT22;2427;50.934;6.776;2022-12-18T07:39:47;-6.30;99.90
4826;DHT22;2427;50.934;6.776;2022-12-18T07:42:12;-6.30;70.80
4826;DHT22;2427;50.934;6.776;2022-12-18T07:44:58;-6.20;96.80
4826;DHT22;2427;50.934;6.776;2022-12-18T07:47:23;-6.20;1.00
4826;DHT22;2427;50.934;6.776;2022-12-18T07:49:49;-6.10;1.00
4826;DHT22;2427;50.934;6.776;2022-12-18T07:52:15;-6.10;1.00
4826;DHT22;2427;50.934;6.776;2022-12-18T07:54:41;-6.10;1.00
4826;DHT22;2427;50.934;6.776;2022-12-18T07:57:07;-6.00;1.00
4826;DHT22;2427;50.934;6.776;2022-12-18T07:59:32;-6.00;1.00
4826;DHT22;2427;50.934;6.776;2022-12-18T08:01:58;-5.90;1.00
4826;DHT22;2427;50.934;6.776;2022-12-18T08:04:24;-5.90;99.90
4826;DHT22;2427;50.934;6.776;2022-12-18T08:06:50;-5.80;99.90
4826;DHT22;2427;50.934;6.776;2022-12-18T08:09:15;-5.80;99.90
4826;DHT22;2427;50.934;6.776;2022-12-18T08:11:41;-5.70;99.90
4826;DHT22;2427;50.934;6.776;2022-12-18T08:14:07;-5.70;99.90
4826;DHT22;2427;50.934;6.776;2022-12-18T08:16:32;-5.70;99.90
4826;DHT22;2427;50.934;6.776;2022-12-18T08:18:58;-5.60;99.90
4826;DHT22;2427;50.934;6.776;2022-12-18T08:21:26;-5.50;99.90
4826;DHT22;2427;50.934;6.776;2022-12-18T08:23:53;-5.50;99.90
4826;DHT22;2427;50.934;6.776;2022-12-18T08:26:19;-5.40;51.10
4826;DHT22;2427;50.934;6.776;2022-12-18T08:28:45;-5.40;1.00
4826;DHT22;2427;50.934;6.776;2022-12-18T08:31:11;-5.30;1.00
4826;DHT22;2427;50.934;6.776;2022-12-18T08:33:38;-5.30;1.00
4826;DHT22;2427;50.934;6.776;2022-12-18T08:36:04;-5.30;1.00
4826;DHT22;2427;50.934;6.776;2022-12-18T08:38:31;-5.20;1.00
4826;DHT22;2427;50.934;6.776;2022-12-18T08:41:05;-5.20;1.00
4826;DHT22;2427;50.934;6.776;2022-12-18T08:43:31;-5.20;1.00
4826;DHT22;2427;50.934;6.776;2022-12-18T08:46:17;-5.10;1.00
4826;DHT22;2427;50.934;6.776;2022-12-18T08:48:43;-5.10;1.00
4826;DHT22;2427;50.934;6.776;2022-12-18T08:51:09;-5.10;1.00
4826;DHT22;2427;50.934;6.776;2022-12-18T08:53:38;-5.00;1.00
4826;DHT22;2427;50.934;6.776;2022-12-18T08:56:04;-4.90;1.00
4826;DHT22;2427;50.934;6.776;2022-12-18T08:58:30;-4.80;1.00
4826;DHT22;2427;50.934;6.776;2022-12-18T09:01:07;-4.70;1.00
4826;DHT22;2427;50.934;6.776;2022-12-18T09:03:34;-4.70;1.00
4826;DHT22;2427;50.934;6.776;2022-12-18T09:06:00;-4.60;1.00
4826;DHT22;2427;50.934;6.776;2022-12-18T09:08:26;-4.50;1.00
4826;DHT22;2427;50.934;6.776;2022-12-18T09:10:51;-4.50;1.00
4826;DHT22;2427;50.934;6.776;2022-12-18T09:13:17;-4.40;1.00
4826;DHT22;2427;50.934;6.776;2022-12-18T09:15:44;-4.30;99.90
4826;DHT22;2427;50.934;6.776;2022-12-18T09:18:14;-4.40;99.90
4826;DHT22;2427;50.934;6.776;2022-12-18T09:20:40;-4.30;1.00
4826;DHT22;2427;50.934;6.776;2022-12-18T09:23:06;-4.30;99.90
4826;DHT22;2427;50.934;6.776;2022-12-18T09:25:33;-4.20;99.90
4826;DHT22;2427;50.934;6.776;2022-12-18T09:28:22;-4.10;99.90
4826;DHT22;2427;50.934;6.776;2022-12-18T09:30:48;-4.00;99.90
4826;DHT22;2427;50.934;6.776;2022-12-18T09:33:14;-3.90;99.90
4826;DHT22;2427;50.934;6.776;2022-12-18T09:35:41;-3.70;99.90
4826;DHT22;2427;50.934;6.776;2022-12-18T09:38:08;-3.70;99.90
4826;DHT22;2427;50.934;6.776;2022-12-18T09:40:41;-3.60;99.90
4826;DHT22;2427;50.934;6.776;2022-12-18T09:43:17;-3.50;99.90
4826;DHT22;2427;50.934;6.776;2022-12-18T09:45:58;-3.50;99.90
4826;DHT22;2427;50.934;6.776;2022-12-18T09:48:46;-3.40;99.90
4826;DHT22;2427;50.934;6.776;2022-12-18T09:51:29;-3.30;99.90
4826;DHT22;2427;50.934;6.776;2022-12-18T09:54:55;-3.20;99.90
4826;DHT22;2427;50.934;6.776;2022-12-18T09:57:01;-3.10;99.90
4826;DHT22;2427;50.934;6.776;2022-12-18T09:59:32;-3.00;99.90
4826;DHT22;2427;50.934;6.776;2022-12-18T10:01:59;-3.00;99.90
4826;DHT22;2427;50.934;6.776;2022-12-18T10:04:28;-2.90;99.90
4826;DHT22;2427;50.934;6.776;2022-12-18T10:07:37;-2.90;66.40
4826;DHT22;2427;50.934;6.776;2022-12-18T10:12:36;-2.70;29.90
4826;DHT22;2427;50.934;6.776;2022-12-18T10:20:52;-2.40;18.30
4826;DHT22;2427;50.934;6.776;2022-12-18T10:23:41;-2.20;89.50
4826;DHT22;2427;50.934;6.776;2022-12-18T10:26:11;-2.00;65.50
4826;DHT22;2427;50.934;6.776;2022-12-18T10:28:39;-2.00;1.00
4826;DHT22;2427;50.934;6.776;2022-12-18T10:31:06;-2.00;1.00
4826;DHT22;2427;50.934;6.776;2022-12-18T10:33:33;-1.90;1.00
4826;DHT22;2427;50.934;6.776;2022-12-18T10:35:59;-1.90;1.00
4826;DHT22;2427;50.934;6.776;2022-12-18T10:38:30;-1.80;1.00
4826;DHT22;2427;50.934;6.776;2022-12-18T10:43:32;-1.80;1.00
4826;DHT22;2427;50.934;6.776;2022-12-18T10:48:30;-1.60;1.00
4826;DHT22;2427;50.934;6.776;2022-12-18T10:50:56;-1.50;1.00
4826;DHT22;2427;50.934;6.776;2022-12-18T10:53:24;-1.50;1.00
4826;DHT22;2427;50.934;6.776;2022-12-18T10:55:53;-1.40;1.00
4826;DHT22;2427;50.934;6.776;2022-12-18T11:03:44;-1.30;1.00
4826;DHT22;2427;50.934;6.776;2022-12-18T11:06:18;-1.30;1.00
4826;DHT22;2427;50.934;6.776;2022-12-18T11:09:00;-1.10;1.00
4826;DHT22;2427;50.934;6.776;2022-12-18T11:11:27;-1.00;1.00
4826;DHT22;2427;50.934;6.776;2022-12-18T11:14:03;-0.90;1.00
4826;DHT22;2427;50.934;6.776;2022-12-18T11:16:35;-0.70;1.00
4826;DHT22;2427;50.934;6.776;2022-12-18T11:21:42;-0.60;1.00
4826;DHT22;2427;50.934;6.776;2022-12-18T11:24:20;-0.50;1.00
4826;DHT22;2427;50.934;6.776;2022-12-18T11:26:46;-0.50;1.00
4826;DHT22;2427;50.934;6.776;2022-12-18T11:29:17;-0.60;1.00
4826;DHT22;2427;50.934;6.776;2022-12-18T11:31:43;-0.40;1.00
4826;DHT22;2427;50.934;6.776;2022-12-18T11:37:12;-0.60;1.00
4826;DHT22;2427;50.934;6.776;2022-12-18T11:45:20;-0.80;1.00
4826;DHT22;2427;50.934;6.776;2022-12-18T11:50:29;-1.00;1.00
4826;DHT22;2427;50.934;6.776;2022-12-18T11:52:56;-1.10;1.00
4826;DHT22;2427;50.934;6.776;2022-12-18T11:55:40;-1.20;1.00
4826;DHT22;2427;50.934;6.776;2022-12-18T11:58:24;-1.30;1.00
4826;DHT22;2427;50.934;6.776;2022-12-18T12:03:35;-1.40;1.00
4826;DHT22;2427;50.934;6.776;2022-12-18T12:09:07;-1.30;1.00
4826;DHT22;2427;50.934;6.776;2022-12-18T12:19:35;-1.40;1.00
4826;DHT22;2427;50.934;6.776;2022-12-18T12:22:24;-1.30;1.00
4826;DHT22;2427;50.934;6.776;2022-12-18T12:25:23;-1.30;1.00
4826;DHT22;2427;50.934;6.776;2022-12-18T12:28:02;-1.30;1.00
4826;DHT22;2427;50.934;6.776;2022-12-18T12:30:38;-1.40;1.00
4826;DHT22;2427;50.934;6.776;2022-12-18T12:38:42;-1.40;1.00
4826;DHT22;2427;50.934;6.776;2022-12-18T12:41:14;-1.40;1.00
4826;DHT22;2427;50.934;6.776;2022-12-18T12:44:04;-1.40;1.00
4826;DHT22;2427;50.934;6.776;2022-12-18T12:46:34;-1.40;1.00
4826;DHT22;2427;50.934;6.776;2022-12-18T12:49:02;-1.50;1.00
4826;DHT22;2427;50.934;6.776;2022-12-18T12:51:35;-1.50;1.00
4826;DHT22;2427;50.934;6.776;2022-12-18T12:54:05;-1.40;1.00
4826;DHT22;2427;50.934;6.776;2022-12-18T12:59:22;-1.10;1.00
4826;DHT22;2427;50.934;6.776;2022-12-18T13:05:14;-1.10;1.00
4826;DHT22;2427;50.934;6.776;2022-12-18T13:07:49;-1.10;1.00
4826;DHT22;2427;50.934;6.776;2022-12-18T13:12:57;-1.20;1.00
4826;DHT22;2427;50.934;6.776;2022-12-18T13:18:22;-1.20;1.00
4826;DHT22;2427;50.934;6.776;2022-12-18T13:21:01;-1.30;1.00
4826;DHT22;2427;50.934;6.776;2022-12-18T13:23:34;-1.30;1.00
4826;DHT22;2427;50.934;6.776;2022-12-18T13:33:50;-1.30;1.00
4826;DHT22;2427;50.934;6.776;2022-12-18T13:39:15;-1.30;1.00
4826;DHT22;2427;50.934;6.776;2022-12-18T13:44:36;-1.30;1.00
4826;DHT22;2427;50.934;6.776;2022-12-18T13:47:05;-1.30;1.00
4826;DHT22;2427;50.934;6.776;2022-12-18T13:49:49;-1.40;1.00
4826;DHT22;2427;50.934;6.776;2022-12-18T13:52:21;-1.40;1.00
4826;DHT22;2427;50.934;6.776;2022-12-18T13:55:01;-1.40;1.00
4826;DHT22;2427;50.934;6.776;2022-12-18T13:57:33;-1.40;1.00
4826;DHT22;2427;50.934;6.776;2022-12-18T14:00:25;-1.50;1.00
4826;DHT22;2427;50.934;6.776;2022-12-18T14:02:51;-1.50;1.00
4826;DHT22;2427;50.934;6.776;2022-12-18T14:05:24;-1.50;1.00
4826;DHT22;2427;50.934;6.776;2022-12-18T14:07:49;-1.60;1.00
4826;DHT22;2427;50.934;6.776;2022-12-18T14:10:15;-1.60;1.00
4826;DHT22;2427;50.934;6.776;2022-12-18T14:12:45;-1.60;1.00
4826;DHT22;2427;50.934;6.776;2022-12-18T14:15:31;-1.60;1.00
4826;DHT22;2427;50.934;6.776;2022-12-18T14:18:03;-1.60;1.00
4826;DHT22;2427;50.934;6.776;2022-12-18T14:20:34;-1.70;1.00
4826;DHT22;2427;50.934;6.776;2022-12-18T14:23:00;-1.70;1.00
4826;DHT22;2427;50.934;6.776;2022-12-18T14:25:27;-1.70;1.00
4826;DHT22;2427;50.934;6.776;2022-12-18T14:30:43;-1.70;1.00
4826;DHT22;2427;50.934;6.776;2022-12-18T14:33:14;-1.70;1.00
4826;DHT22;2427;50.934;6.776;2022-12-18T14:35:51;-1.80;1.00
4826;DHT22;2427;50.934;6.776;2022-12-18T14:38:37;-1.80;1.00
4826;DHT22;2427;50.934;6.776;2022-12-18T14:41:14;-1.80;1.00
4826;DHT22;2427;50.934;6.776;2022-12-18T14:43:45;-1.90;1.00
4826;DHT22;2427;50.934;6.776;2022-12-18T14:49:17;-1.90;1.00
4826;DHT22;2427;50.934;6.776;2022-12-18T14:51:53;-1.90;1.00
4826;DHT22;2427;50.934;6.776;2022-12-18T14:54:20;-1.90;1.00
4826;DHT22;2427;50.934;6.776;2022-12-18T14:56:48;-2.00;1.00
4826;DHT22;2427;50.934;6.776;2022-12-18T14:59:15;-2.00;1.00
4826;DHT22;2427;50.934;6.776;2022-12-18T15:01:56;-2.00;1.00
4826;DHT22;2427;50.934;6.776;2022-12-18T15:09:37;-2.00;1.00
4826;DHT22;2427;50.934;6.776;2022-12-18T15:12:04;-2.00;1.00
4826;DHT22;2427;50.934;6.776;2022-12-18T15:16:56;-2.00;1.00
4826;DHT22;2427;50.934;6.776;2022-12-18T15:19:31;-2.10;1.00
4826;DHT22;2427;50.934;6.776;2022-12-18T15:21:57;-2.10;1.00
4826;DHT22;2427;50.934;6.776;2022-12-18T15:24:31;-2.10;1.00
4826;DHT22;2427;50.934;6.776;2022-12-18T15:26:58;-2.10;1.00
4826;DHT22;2427;50.934;6.776;2022-12-18T15:29:23;-2.10;1.00
4826;DHT22;2427;50.934;6.776;2022-12-18T15:32:18;-2.10;1.00
4826;DHT22;2427;50.934;6.776;2022-12-18T15:34:44;-2.10;1.00
4826;DHT22;2427;50.934;6.776;2022-12-18T15:37:09;-2.10;1.00
4826;DHT22;2427;50.934;6.776;2022-12-18T15:39:35;-2.10;1.00
4826;DHT22;2427;50.934;6.776;2022-12-18T15:42:01;-2.20;1.00
4826;DHT22;2427;50.934;6.776;2022-12-18T15:44:46;-2.20;1.00
4826;DHT22;2427;50.934;6.776;2022-12-18T15:47:12;-2.20;1.00
4826;DHT22;2427;50.934;6.776;2022-12-18T15:49:38;-2.20;1.00
4826;DHT22;2427;50.934;6.776;2022-12-18T15:52:05;-2.20;1.00
4826;DHT22;2427;50.934;6.776;2022-12-18T15:54:30;-2.20;1.00
4826;DHT22;2427;50.934;6.776;2022-12-18T15:57:14;-2.20;1.00
4826;DHT22;2427;50.934;6.776;2022-12-18T15:59:54;-2.20;1.00
4826;DHT22;2427;50.934;6.776;2022-12-18T16:02:22;-2.20;1.00
4826;DHT22;2427;50.934;6.776;2022-12-18T16:04:48;-2.20;1.00
4826;DHT22;2427;50.934;6.776;2022-12-18T16:07:14;-2.20;1.00
4826;DHT22;2427;50.934;6.776;2022-12-18T16:09:39;-2.20;1.00
4826;DHT22;2427;50.934;6.776;2022-12-18T16:12:06;-2.20;1.00
4826;DHT22;2427;50.934;6.776;2022-12-18T16:14:35;-2.20;1.00
4826;DHT22;2427;50.934;6.776;2022-12-18T16:17:03;-2.30;1.00
4826;DHT22;2427;50.934;6.776;2022-12-18T16:19:29;-2.30;1.00
4826;DHT22;2427;50.934;6.776;2022-12-18T16:21:57;-2.30;1.00
4826;DHT22;2427;50.934;6.776;2022-12-18T16:24:28;-2.30;1.00
4826;DHT22;2427;50.934;6.776;2022-12-18T16:26:55;-2.20;1.00
4826;DHT22;2427;50.934;6.776;2022-12-18T16:29:24;-2.20;1.00
4826;DHT22;2427;50.934;6.776;2022-12-18T16:31:53;-2.30;1.00
4826;DHT22;2427;50.934;6.776;2022-12-18T16:36:49;-2.30;2.10
4826;DHT22;2427;50.934;6.776;2022-12-18T16:39:15;-2.30;2.40
4826;DHT22;2427;50.934;6.776;2022-12-18T16:41:41;-2.30;19.50
4826;DHT22;2427;50.934;6.776;2022-12-18T16:44:06;-2.30;25.40
4826;DHT22;2427;50.934;6.776;2022-12-18T16:46:32;-2.30;25.50
4826;DHT22;2427;50.934;6.776;2022-12-18T16:48:58;-2.30;37.20
4826;DHT22;2427;50.934;6.776;2022-12-18T16:51:24;-2.20;45.80
4826;DHT22;2427;50.934;6.776;2022-12-18T16:53:50;-2.20;41.10
4826;DHT22;2427;50.934;6.776;2022-12-18T16:56:15;-2.20;25.20
4826;DHT22;2427;50.934;6.776;2022-12-18T16:58:41;-2.20;37.10
4826;DHT22;2427;50.934;6.776;2022-12-18T17:01:08;-2.20;20.00
4826;DHT22;2427;50.934;6.776;2022-12-18T17:03:34;-2.20;19.40
4826;DHT22;2427;50.934;6.776;2022-12-18T17:06:04;-2.20;50.20
4826;DHT22;2427;50.934;6.776;2022-12-18T17:08:30;-2.20;56.70
4826;DHT22;2427;50.934;6.776;2022-12-18T17:10:55;-2.20;45.40
4826;DHT22;2427;50.934;6.776;2022-12-18T17:13:21;-2.20;66.00
4826;DHT22;2427;50.934;6.776;2022-12-18T17:15:46;-2.20;58.20
4826;DHT22;2427;50.934;6.776;2022-12-18T17:18:12;-2.20;62.70
4826;DHT22;2427;50.934;6.776;2022-12-18T17:20:37;-2.20;82.40
4826;DHT22;2427;50.934;6.776;2022-12-18T17:23:03;-2.20;70.80
4826;DHT22;2427;50.934;6.776;2022-12-18T17:25:28;-2.20;46.60
4826;DHT22;2427;50.934;6.776;2022-12-18T17:27:54;-2.20;66.10
4826;DHT22;2427;50.934;6.776;2022-12-18T17:30:19;-2.30;91.90
4826;DHT22;2427;50.934;6.776;2022-12-18T17:32:45;-2.30;98.50
4826;DHT22;2427;50.934;6.776;2022-12-18T17:35:10;-2.30;99.90
4826;DHT22;2427;50.934;6.776;2022-12-18T17:37:36;-2.30;99.90
4826;DHT22;2427;50.934;6.776;2022-12-18T17:40:02;-2.30;99.90
4826;DHT22;2427;50.934;6.776;2022-12-18T17:42:27;-2.30;99.90
4826;DHT22;2427;50.934;6.776;2022-12-18T17:44:53;-2.30;99.90
4826;DHT22;2427;50.934;6.776;2022-12-18T17:47:18;-2.30;99.90
4826;DHT22;2427;50.934;6.776;2022-12-18T17:49:44;-2.40;99.90
4826;DHT22;2427;50.934;6.776;2022-12-18T17:52:10;-2.40;99.90
4826;DHT22;2427;50.934;6.776;2022-12-18T17:54:35;-2.40;99.90
4826;DHT22;2427;50.934;6.776;2022-12-18T17:57:04;-2.40;99.90
4826;DHT22;2427;50.934;6.776;2022-12-18T17:59:30;-2.40;99.90
4826;DHT22;2427;50.934;6.776;2022-12-18T18:01:56;-2.40;99.90
4826;DHT22;2427;50.934;6.776;2022-12-18T18:04:21;-2.40;99.90
4826;DHT22;2427;50.934;6.776;2022-12-18T18:06:47;-2.40;99.90
4826;DHT22;2427;50.934;6.776;2022-12-18T18:09:12;-2.40;99.90
4826;DHT22;2427;50.934;6.776;2022-12-18T18:11:38;-2.40;99.90
4826;DHT22;2427;50.934;6.776;2022-12-18T18:14:22;-2.30;99.90
4826;DHT22;2427;50.934;6.776;2022-12-18T18:16:49;-2.30;99.90
4826;DHT22;2427;50.934;6.776;2022-12-18T18:19:20;-2.40;99.90
4826;DHT22;2427;50.934;6.776;2022-12-18T18:21:48;-2.30;99.90
4826;DHT22;2427;50.934;6.776;2022-12-18T18:24:17;-2.30;99.90
4826;DHT22;2427;50.934;6.776;2022-12-18T18:26:43;-2.30;99.90
4826;DHT22;2427;50.934;6.776;2022-12-18T18:29:14;-2.40;99.90
4826;DHT22;2427;50.934;6.776;2022-12-18T18:31:40;-2.30;99.90